createdAt,value
2017-11-30T00:01:53.889Z,99840.23
2017-11-30T00:04:20.995Z,99829.85
2017-11-30T00:06:47.930Z,99838.45
2017-11-30T00:09:14.893Z,99837.77
2017-11-30T00:11:42.341Z,99829.94
2017-11-30T00:14:09.226Z,99823.66
2017-11-30T00:16:36.105Z,99822.31
2017-11-30T00:19:02.962Z,99819.22
2017-11-30T00:21:29.862Z,99820.16
2017-11-30T00:23:56.813Z,99830.90
2017-11-30T00:26:23.960Z,99831.80
2017-11-30T00:28:50.883Z,99830.75
2017-11-30T00:31:17.831Z,99832.14
2017-11-30T00:33:47.180Z,99825.20
2017-11-30T00:36:14.260Z,99827.03
2017-11-30T00:38:41.097Z,99817.11
2017-11-30T00:41:07.972Z,99824.50
2017-11-30T00:43:35.924Z,99825.70
2017-11-30T00:46:02.912Z,99828.52
2017-11-30T00:48:30.642Z,99832.83
2017-11-30T00:50:57.460Z,99830.50
2017-11-30T00:53:25.262Z,99828.00
2017-11-30T00:55:52.221Z,99823.83
2017-11-30T00:58:19.134Z,99813.47
2017-11-30T01:00:46.112Z,99807.95
2017-11-30T01:03:12.968Z,99798.04
2017-11-30T01:05:39.815Z,99793.95
2017-11-30T01:08:06.654Z,99800.77
2017-11-30T01:10:33.503Z,99799.84
2017-11-30T01:13:00.338Z,99804.09
2017-11-30T01:15:27.921Z,99802.05
2017-11-30T01:17:55.539Z,99799.58
2017-11-30T01:20:22.361Z,99798.41
2017-11-30T01:22:49.958Z,99799.19
2017-11-30T01:25:16.786Z,99796.68
2017-11-30T01:27:44.350Z,99800.12
2017-11-30T01:30:11.175Z,99800.95
2017-11-30T01:32:38.009Z,99799.62
2017-11-30T01:35:04.802Z,99790.16
2017-11-30T01:37:31.645Z,99789.56
2017-11-30T01:39:58.490Z,99787.93
2017-11-30T01:42:25.316Z,99797.04
2017-11-30T01:44:52.145Z,99794.00
2017-11-30T01:47:18.977Z,99792.05
2017-11-30T01:49:45.801Z,99786.00
2017-11-30T01:52:12.622Z,99791.06
2017-11-30T01:54:39.521Z,99795.49
2017-11-30T01:57:06.399Z,99791.41
2017-11-30T01:59:33.298Z,99792.02
2017-11-30T02:02:01.072Z,99781.59
2017-11-30T02:04:27.950Z,99781.44
2017-11-30T02:06:54.778Z,99781.08
2017-11-30T02:09:21.637Z,99779.43
2017-11-30T02:11:49.231Z,99778.13
2017-11-30T02:14:16.098Z,99779.31
2017-11-30T02:16:42.960Z,99771.06
2017-11-30T02:19:09.832Z,99768.28
2017-11-30T02:21:36.717Z,99775.19
2017-11-30T02:24:03.561Z,99770.00
2017-11-30T02:26:30.436Z,99771.29
2017-11-30T02:28:57.324Z,99766.66
2017-11-30T02:31:24.303Z,99769.42
2017-11-30T02:33:51.158Z,99765.66
2017-11-30T02:36:18.056Z,99765.28
2017-11-30T02:38:44.943Z,99767.38
2017-11-30T02:41:11.890Z,99763.97
2017-11-30T02:43:38.745Z,99765.92
2017-11-30T02:46:05.667Z,99762.70
2017-11-30T02:48:32.626Z,99768.50
2017-11-30T02:50:59.533Z,99766.02
2017-11-30T02:53:26.424Z,99768.27
2017-11-30T02:55:53.352Z,99769.48
2017-11-30T02:58:20.273Z,99767.95
2017-11-30T03:00:47.172Z,99766.78
2017-11-30T03:03:14.044Z,99760.65
2017-11-30T03:05:40.953Z,99755.41
2017-11-30T03:08:07.915Z,99747.14
2017-11-30T03:10:34.818Z,99745.75
2017-11-30T03:13:01.663Z,99741.73
2017-11-30T03:15:28.481Z,99742.98
2017-11-30T03:17:55.335Z,99738.66
2017-11-30T03:20:22.198Z,99742.83
2017-11-30T03:22:49.076Z,99738.22
2017-11-30T03:25:15.928Z,99726.09
2017-11-30T03:27:42.825Z,99719.54
2017-11-30T03:30:09.713Z,99717.78
2017-11-30T03:32:36.600Z,99711.33
2017-11-30T03:35:03.440Z,99713.15
2017-11-30T03:37:30.295Z,99713.23
2017-11-30T03:39:57.876Z,99713.12
2017-11-30T03:42:24.732Z,99707.38
2017-11-30T03:44:52.341Z,99708.66
2017-11-30T03:47:19.188Z,99712.80
2017-11-30T03:49:46.059Z,99714.48
2017-11-30T03:52:12.968Z,99721.38
2017-11-30T03:54:39.848Z,99721.50
2017-11-30T03:57:06.720Z,99717.59
2017-11-30T03:59:34.312Z,99716.19
2017-11-30T04:02:01.185Z,99716.27
2017-11-30T04:04:28.075Z,99708.64
2017-11-30T04:06:54.892Z,99705.76
2017-11-30T04:09:22.449Z,99714.55
2017-11-30T04:11:50.010Z,99716.45
2017-11-30T04:14:16.831Z,99709.87
2017-11-30T04:16:43.661Z,99704.57
2017-11-30T04:19:11.227Z,99706.23
2017-11-30T04:21:38.785Z,99705.02
2017-11-30T04:24:05.632Z,99704.47
2017-11-30T04:26:32.471Z,99698.81
2017-11-30T04:28:59.308Z,99695.05
2017-11-30T04:31:26.152Z,99694.06
2017-11-30T04:33:53.728Z,99692.45
2017-11-30T04:36:21.304Z,99693.09
2017-11-30T04:38:48.875Z,99682.64
2017-11-30T04:41:15.743Z,99692.29
2017-11-30T04:43:42.544Z,99687.34
2017-11-30T04:46:09.381Z,99684.80
2017-11-30T04:48:36.243Z,99684.25
2017-11-30T04:51:03.103Z,99682.36
2017-11-30T04:53:29.913Z,99681.69
2017-11-30T04:55:56.696Z,99681.34
2017-11-30T04:58:23.540Z,99683.08
2017-11-30T05:00:50.474Z,99677.59
2017-11-30T05:03:17.362Z,99684.14
2017-11-30T05:05:44.374Z,99682.77
2017-11-30T05:08:11.246Z,99679.78
2017-11-30T05:10:38.114Z,99677.30
2017-11-30T05:13:04.970Z,99681.42
2017-11-30T05:15:31.830Z,99680.05
2017-11-30T05:17:58.654Z,99677.55
2017-11-30T05:20:25.514Z,99674.47
2017-11-30T05:22:52.435Z,99676.41
2017-11-30T05:25:19.308Z,99676.62
2017-11-30T05:27:46.181Z,99677.91
2017-11-30T05:30:13.004Z,99672.63
2017-11-30T05:32:39.819Z,99672.55
2017-11-30T05:35:06.682Z,99667.22
2017-11-30T05:37:33.489Z,99655.29
2017-11-30T05:40:00.300Z,99663.99
2017-11-30T05:42:27.102Z,99662.01
2017-11-30T05:44:53.986Z,99660.02
2017-11-30T05:47:20.793Z,99658.72
2017-11-30T05:49:47.613Z,99654.52
2017-11-30T05:52:14.436Z,99649.59
2017-11-30T05:54:41.242Z,99651.22
2017-11-30T05:57:08.083Z,99656.13
2017-11-30T05:59:34.913Z,99656.92
2017-11-30T06:02:01.797Z,99649.29
2017-11-30T06:04:28.671Z,99653.17
2017-11-30T06:06:57.538Z,99650.70
2017-11-30T06:09:24.393Z,99656.29
2017-11-30T06:11:51.975Z,99653.41
2017-11-30T06:14:18.828Z,99649.77
2017-11-30T06:16:46.401Z,99647.34
2017-11-30T06:19:13.244Z,99654.38
2017-11-30T06:21:40.074Z,99653.03
2017-11-30T06:24:06.975Z,99652.05
2017-11-30T06:26:33.805Z,99640.05
2017-11-30T06:29:00.689Z,99649.52
2017-11-30T06:31:27.577Z,99642.77
2017-11-30T06:33:55.179Z,99650.27
2017-11-30T06:36:22.105Z,99644.95
2017-11-30T06:38:50.469Z,99639.52
2017-11-30T06:41:17.399Z,99644.79
2017-11-30T06:43:44.296Z,99644.73
2017-11-30T06:46:11.178Z,99642.87
2017-11-30T06:48:38.065Z,99645.83
2017-11-30T06:51:05.681Z,99639.61
2017-11-30T06:53:32.669Z,99642.39
2017-11-30T06:55:59.573Z,99634.86
2017-11-30T06:58:27.220Z,99635.49
2017-11-30T07:00:54.071Z,99631.41
2017-11-30T07:03:20.978Z,99644.13
2017-11-30T07:05:48.561Z,99644.56
2017-11-30T07:08:15.391Z,99648.13
2017-11-30T07:10:42.246Z,99643.91
2017-11-30T07:13:09.827Z,99650.70
2017-11-30T07:15:36.635Z,99649.28
2017-11-30T07:18:03.474Z,99647.73
2017-11-30T07:20:31.052Z,99648.40
2017-11-30T07:22:58.650Z,99648.73
2017-11-30T07:25:25.496Z,99650.58
2017-11-30T07:27:54.236Z,99654.23
2017-11-30T07:30:21.305Z,99651.46
2017-11-30T07:32:48.186Z,99660.92
2017-11-30T07:35:15.112Z,99658.80
2017-11-30T07:37:41.981Z,99656.45
2017-11-30T07:40:08.865Z,99656.82
2017-11-30T07:42:35.780Z,99659.58
2017-11-30T07:45:02.642Z,99651.45
2017-11-30T07:47:29.465Z,99650.35
2017-11-30T07:49:56.280Z,99651.36
2017-11-30T07:52:23.141Z,99653.52
2017-11-30T07:54:49.964Z,99655.42
2017-11-30T07:57:16.756Z,99653.38
2017-11-30T07:59:43.591Z,99655.78
2017-11-30T08:02:11.188Z,99660.48
2017-11-30T08:04:38.801Z,99653.98
2017-11-30T08:07:05.614Z,99655.72
2017-11-30T08:09:33.164Z,99653.25
2017-11-30T08:11:59.974Z,99646.19
2017-11-30T08:14:26.799Z,99646.44
2017-11-30T08:16:53.618Z,99645.25
2017-11-30T08:19:20.464Z,99650.70
2017-11-30T08:21:47.364Z,99657.52
2017-11-30T08:24:14.253Z,99660.45
2017-11-30T08:26:41.880Z,99651.54
2017-11-30T08:29:08.713Z,99649.44
2017-11-30T08:31:35.521Z,99651.41
2017-11-30T08:34:02.384Z,99648.41
2017-11-30T08:36:29.248Z,99648.88
2017-11-30T08:38:56.092Z,99650.27
2017-11-30T08:41:22.990Z,99648.93
2017-11-30T08:43:49.870Z,99647.52
2017-11-30T08:46:16.752Z,99647.80
2017-11-30T08:48:43.605Z,99646.12
2017-11-30T08:51:10.490Z,99645.61
2017-11-30T08:53:37.337Z,99641.77
2017-11-30T08:56:04.224Z,99643.95
2017-11-30T08:58:31.118Z,99640.84
2017-11-30T09:00:58.019Z,99637.86
2017-11-30T09:03:24.879Z,99635.98
2017-11-30T09:05:51.747Z,99644.59
2017-11-30T09:08:18.621Z,99644.55
2017-11-30T09:10:45.466Z,99642.72
2017-11-30T09:13:12.352Z,99636.77
2017-11-30T09:15:39.184Z,99635.95
2017-11-30T09:18:06.057Z,99639.75
2017-11-30T09:20:32.916Z,99634.31
2017-11-30T09:22:59.749Z,99639.39
2017-11-30T09:25:27.323Z,99632.55
2017-11-30T09:27:54.210Z,99633.50
2017-11-30T09:30:21.061Z,99631.09
2017-11-30T09:32:47.929Z,99638.28
2017-11-30T09:35:14.761Z,99635.39
2017-11-30T09:37:41.565Z,99632.78
2017-11-30T09:40:08.428Z,99633.55
2017-11-30T09:42:35.284Z,99634.44
2017-11-30T09:45:02.148Z,99638.78
2017-11-30T09:47:28.949Z,99634.72
2017-11-30T09:49:55.793Z,99637.05
2017-11-30T09:52:22.617Z,99630.37
2017-11-30T09:54:49.514Z,99630.28
2017-11-30T09:57:16.512Z,99629.48
2017-11-30T09:59:43.417Z,99622.31
2017-11-30T10:02:10.295Z,99611.36
2017-11-30T10:04:37.155Z,99617.90
2017-11-30T10:07:04.990Z,99622.76
2017-11-30T10:09:32.592Z,99608.52
2017-11-30T10:11:59.602Z,99607.20
2017-11-30T10:14:26.533Z,99606.56
2017-11-30T10:16:54.557Z,99610.03
2017-11-30T10:19:21.434Z,99599.59
2017-11-30T10:21:48.284Z,99600.89
2017-11-30T10:24:15.168Z,99604.23
2017-11-30T10:26:42.787Z,99603.51
2017-11-30T10:29:09.615Z,99602.05
2017-11-30T10:31:37.223Z,99597.27
2017-11-30T10:34:04.036Z,99593.56
2017-11-30T10:36:30.879Z,99591.22
2017-11-30T10:38:57.742Z,99589.40
2017-11-30T10:41:24.575Z,99582.26
2017-11-30T10:43:51.410Z,99586.78
2017-11-30T10:46:18.302Z,99584.38
2017-11-30T10:48:45.934Z,99584.77
2017-11-30T10:51:13.534Z,99578.56
2017-11-30T10:53:40.370Z,99574.72
2017-11-30T10:56:07.245Z,99569.78
2017-11-30T10:58:34.831Z,99574.83
2017-11-30T11:01:01.707Z,99568.05
2017-11-30T11:03:28.653Z,99563.34
2017-11-30T11:05:55.489Z,99563.11
2017-11-30T11:08:22.298Z,99563.83
2017-11-30T11:10:49.149Z,99568.22
2017-11-30T11:13:15.990Z,99565.47
2017-11-30T11:28:08.878Z,99551.74
2017-11-30T11:30:35.895Z,99552.88
2017-11-30T11:33:02.752Z,99559.30
2017-11-30T11:35:30.293Z,99549.25
2017-11-30T11:37:57.128Z,99556.14
2017-11-30T11:40:24.009Z,99552.64
2017-11-30T11:42:50.857Z,99549.52
2017-11-30T11:45:17.661Z,99553.08
2017-11-30T11:47:44.492Z,99550.39
2017-11-30T11:50:11.308Z,99546.11
2017-11-30T11:52:38.858Z,99549.68
2017-11-30T11:55:05.777Z,99547.84
2017-11-30T11:57:32.633Z,99547.16
2017-11-30T11:59:59.510Z,99542.72
2017-11-30T12:02:26.334Z,99547.28
2017-11-30T12:04:53.160Z,99548.89
2017-11-30T12:07:19.990Z,99547.75
2017-11-30T12:09:46.828Z,99547.14
2017-11-30T12:12:13.666Z,99546.99
2017-11-30T12:14:41.208Z,99544.95
2017-11-30T12:17:08.020Z,99545.81
2017-11-30T12:19:34.892Z,99545.57
2017-11-30T12:22:01.733Z,99546.07
2017-11-30T12:24:29.345Z,99548.58
2017-11-30T12:26:56.210Z,99545.11
2017-11-30T12:29:23.025Z,99541.96
2017-11-30T12:31:50.632Z,99545.12
2017-11-30T12:34:17.491Z,99537.61
2017-11-30T12:36:44.346Z,99541.03
2017-11-30T12:39:11.170Z,99534.75
2017-11-30T12:41:38.034Z,99541.98
2017-11-30T12:44:04.942Z,99540.53
2017-11-30T12:46:32.511Z,99538.63
2017-11-30T12:48:59.329Z,99540.59
2017-11-30T12:51:26.173Z,99536.36
2017-11-30T12:53:53.023Z,99536.09
2017-11-30T12:56:19.892Z,99526.59
2017-11-30T12:58:46.835Z,99526.88
2017-11-30T13:01:13.699Z,99526.47
2017-11-30T13:03:40.613Z,99521.66
2017-11-30T13:06:07.560Z,99525.16
2017-11-30T13:08:34.428Z,99527.56
2017-11-30T13:11:01.360Z,99527.47
2017-11-30T13:13:28.303Z,99524.54
2017-11-30T13:15:55.247Z,99523.23
2017-11-30T13:18:22.891Z,99516.53
2017-11-30T13:20:50.400Z,99517.92
2017-11-30T13:23:17.300Z,99514.88
2017-11-30T13:25:44.236Z,99518.79
2017-11-30T13:28:11.152Z,99516.51
2017-11-30T13:30:37.989Z,99516.84
2017-11-30T13:33:04.906Z,99510.86
2017-11-30T13:35:32.520Z,99504.52
2017-11-30T13:37:59.378Z,99510.42
2017-11-30T13:40:29.169Z,99514.16
2017-11-30T13:42:56.380Z,99512.77
2017-11-30T13:45:23.970Z,99519.13
2017-11-30T13:47:50.854Z,99515.48
2017-11-30T13:50:17.770Z,99513.84
2017-11-30T13:52:45.631Z,99513.30
2017-11-30T13:55:13.384Z,99515.75
2017-11-30T13:57:40.222Z,99511.73
2017-11-30T14:00:07.592Z,99512.33
2017-11-30T14:02:34.434Z,99517.52
2017-11-30T14:05:01.271Z,99522.02
2017-11-30T14:07:32.376Z,99520.53
2017-11-30T14:20:56.828Z,99526.69
2017-11-30T14:36:15.703Z,99535.23
2017-11-30T14:38:43.100Z,99537.42
2017-11-30T14:41:09.961Z,99538.34
2017-11-30T14:43:36.817Z,99544.36
2017-11-30T14:46:03.688Z,99542.09
2017-11-30T14:48:30.531Z,99545.03
2017-11-30T14:50:57.406Z,99544.81
2017-11-30T14:53:24.243Z,99545.93
2017-11-30T14:55:51.064Z,99545.82
2017-11-30T14:58:17.910Z,99556.12
2017-11-30T15:00:44.787Z,99562.83
2017-11-30T15:03:11.671Z,99568.80
2017-11-30T15:05:39.286Z,99560.88
2017-11-30T15:08:06.160Z,99565.52
2017-11-30T15:10:33.019Z,99560.82
2017-11-30T15:12:59.942Z,99562.45
2017-11-30T15:15:26.829Z,99562.36
2017-11-30T15:17:55.758Z,99565.80
2017-11-30T15:20:22.626Z,99563.38
2017-11-30T15:22:57.957Z,99565.03
2017-11-30T15:25:24.936Z,99573.27
2017-11-30T15:27:51.841Z,99572.82
2017-11-30T15:30:19.507Z,99565.80
2017-11-30T15:32:46.437Z,99569.86
2017-11-30T15:35:13.329Z,99577.83
2017-11-30T15:37:40.189Z,99577.38
2017-11-30T15:40:07.446Z,99579.92
2017-11-30T15:42:34.380Z,99581.73
2017-11-30T15:45:01.948Z,99582.70
2017-11-30T15:47:28.864Z,99584.78
2017-11-30T15:49:55.814Z,99591.84
2017-11-30T15:52:22.600Z,99587.98
2017-11-30T15:54:51.434Z,99586.19
2017-11-30T15:57:18.342Z,99584.91
2017-11-30T15:59:45.189Z,99587.98
2017-11-30T16:02:12.092Z,99587.94
2017-11-30T16:04:38.925Z,99592.05
2017-11-30T16:07:05.860Z,99594.67
2017-11-30T16:09:35.478Z,99594.62
2017-11-30T16:22:05.138Z,99594.21
2017-11-30T16:24:32.738Z,99587.42
2017-11-30T16:27:00.048Z,99590.88
2017-11-30T16:29:27.198Z,99595.43
2017-11-30T16:31:54.847Z,99589.70
2017-11-30T16:34:21.722Z,99597.87
2017-11-30T16:36:49.394Z,99598.11
2017-11-30T16:39:16.384Z,99598.83
2017-11-30T16:41:43.270Z,99599.42
2017-11-30T16:44:10.141Z,99594.05
2017-11-30T16:46:37.798Z,99597.95
2017-11-30T16:49:04.678Z,99600.10
2017-11-30T16:51:31.608Z,99600.04
2017-11-30T16:53:58.514Z,99605.55
2017-11-30T16:56:26.142Z,99602.52
2017-11-30T16:58:53.052Z,99604.87
2017-11-30T17:01:20.636Z,99611.05
2017-11-30T17:03:48.372Z,99612.11
2017-11-30T17:06:15.236Z,99613.91
2017-11-30T17:08:42.116Z,99611.20
2017-11-30T17:11:09.071Z,99618.83
2017-11-30T17:13:35.955Z,99616.70
2017-11-30T17:16:03.242Z,99620.72
2017-11-30T17:18:30.996Z,99617.42
2017-11-30T17:20:57.885Z,99616.83
2017-11-30T17:23:25.494Z,99616.55
2017-11-30T17:25:52.422Z,99616.44
2017-11-30T17:28:20.065Z,99619.73
2017-11-30T17:30:46.953Z,99623.51
2017-11-30T17:33:13.941Z,99622.75
2017-11-30T17:35:41.343Z,99622.67
2017-11-30T17:38:08.256Z,99617.47
2017-11-30T17:40:35.140Z,99623.27
2017-11-30T17:43:01.996Z,99626.22
2017-11-30T17:45:28.955Z,99629.69
2017-11-30T17:47:55.905Z,99634.14
2017-11-30T17:50:23.516Z,99639.19
2017-11-30T17:52:50.428Z,99637.01
2017-11-30T17:55:17.329Z,99631.27
2017-11-30T17:57:44.178Z,99635.59
2017-11-30T18:00:11.902Z,99638.56
2017-11-30T18:02:38.773Z,99639.26
2017-11-30T18:05:05.613Z,99647.90
2017-11-30T18:07:32.488Z,99645.64
2017-11-30T18:09:59.345Z,99643.42
2017-11-30T18:12:26.166Z,99641.89
2017-11-30T18:14:53.825Z,99640.69
2017-11-30T18:17:20.768Z,99645.46
2017-11-30T18:19:47.626Z,99649.72
2017-11-30T18:22:14.645Z,99650.87
2017-11-30T18:24:41.543Z,99655.59
2017-11-30T18:27:08.487Z,99654.42
2017-11-30T18:29:35.314Z,99655.06
2017-11-30T18:32:02.192Z,99660.59
2017-11-30T18:34:29.767Z,99658.87
2017-11-30T18:36:57.428Z,99661.46
2017-11-30T18:39:25.197Z,99654.90
2017-11-30T18:41:52.185Z,99660.41
2017-11-30T18:44:19.083Z,99652.13
2017-11-30T18:46:46.444Z,99660.39
2017-11-30T18:49:18.860Z,99666.52
2017-11-30T18:51:45.872Z,99669.53
2017-11-30T18:54:13.680Z,99666.70
2017-11-30T18:56:42.684Z,99673.22
2017-11-30T18:59:10.404Z,99673.72
2017-11-30T19:01:38.428Z,99671.66
2017-11-30T19:04:06.004Z,99672.72
2017-11-30T19:06:38.931Z,99674.56
2017-11-30T19:09:07.469Z,99667.25
2017-11-30T19:11:40.379Z,99670.63
2017-11-30T19:14:10.130Z,99675.05
2017-11-30T19:16:38.327Z,99678.47
2017-11-30T19:19:10.371Z,99684.03
2017-11-30T19:21:38.234Z,99682.08
2017-11-30T19:24:05.778Z,99688.53
2017-11-30T19:26:38.149Z,99683.87
2017-11-30T19:29:06.583Z,99686.25
2017-11-30T19:31:33.764Z,99688.41
2017-11-30T19:34:01.639Z,99683.88
2017-11-30T19:36:28.819Z,99689.53
2017-11-30T19:38:55.965Z,99687.30
2017-11-30T19:41:24.412Z,99683.95
2017-11-30T19:43:51.721Z,99688.92
2017-11-30T19:46:21.575Z,99691.06
2017-11-30T19:48:49.367Z,99690.39
2017-11-30T19:51:22.101Z,99704.22
2017-11-30T19:54:00.526Z,99707.37
2017-11-30T19:56:28.330Z,99710.19
2017-11-30T19:58:55.323Z,99711.18
2017-11-30T20:01:23.922Z,99710.32
2017-11-30T20:03:57.961Z,99713.77
2017-11-30T20:06:30.631Z,99715.69
2017-11-30T20:09:04.644Z,99721.20
2017-11-30T20:11:31.697Z,99719.23
2017-11-30T20:14:04.259Z,99716.97
2017-11-30T20:16:34.244Z,99719.63
2017-11-30T20:19:01.344Z,99726.06
2017-11-30T20:21:29.899Z,99723.56
2017-11-30T20:23:58.548Z,99720.50
2017-11-30T20:26:25.897Z,99726.81
2017-11-30T20:28:56.677Z,99733.61
2017-11-30T20:31:24.506Z,99727.16
2017-11-30T20:34:02.471Z,99737.03
2017-11-30T20:36:45.271Z,99731.73
2017-11-30T20:39:17.672Z,99743.63
2017-11-30T20:42:01.788Z,99742.83
2017-11-30T20:44:29.080Z,99745.66
2017-11-30T20:46:59.146Z,99747.19
2017-11-30T20:49:27.885Z,99750.02
2017-11-30T20:51:57.019Z,99746.68
2017-11-30T20:54:29.596Z,99759.95
2017-11-30T20:56:56.818Z,99758.28
2017-11-30T20:59:25.370Z,99761.16
2017-11-30T21:01:57.532Z,99762.22
2017-11-30T21:04:29.894Z,99758.86
2017-11-30T21:06:56.804Z,99760.17
2017-11-30T21:09:24.062Z,99758.76
2017-11-30T21:11:51.727Z,99758.92
2017-11-30T21:14:24.714Z,99756.91
2017-11-30T21:16:53.294Z,99759.72
2017-11-30T21:19:21.370Z,99760.02
2017-11-30T21:21:49.232Z,99764.72
2017-11-30T21:24:16.774Z,99763.20
2017-11-30T21:26:44.336Z,99761.91
2017-11-30T21:29:11.875Z,99761.91
2017-11-30T21:31:39.155Z,99770.59
2017-11-30T21:34:07.969Z,99773.86
2017-11-30T21:36:34.792Z,99780.67
2017-11-30T21:39:04.984Z,99780.61
2017-11-30T21:41:33.796Z,99781.68
2017-11-30T21:44:01.924Z,99787.13
2017-11-30T21:46:29.029Z,99790.95
2017-11-30T21:48:56.055Z,99789.96
2017-11-30T21:51:22.926Z,99794.67
2017-11-30T21:53:51.896Z,99798.28
2017-11-30T21:56:18.890Z,99793.00
2017-11-30T21:58:49.069Z,99796.06
2017-11-30T22:01:15.973Z,99794.61
2017-11-30T22:03:48.351Z,99800.20
2017-11-30T22:06:16.565Z,99796.22
2017-11-30T22:08:43.635Z,99798.22
2017-11-30T22:11:11.494Z,99801.28
2017-11-30T22:13:38.731Z,99796.94
2017-11-30T22:16:05.691Z,99807.44
2017-11-30T22:18:32.864Z,99803.80
2017-11-30T22:21:00.724Z,99807.80
2017-11-30T22:23:29.228Z,99809.64
2017-11-30T22:25:58.508Z,99807.72
2017-11-30T22:28:33.267Z,99811.27
2017-11-30T22:31:00.235Z,99811.80
2017-11-30T22:33:32.718Z,99808.37
2017-11-30T22:35:59.789Z,99812.89
2017-11-30T22:38:27.259Z,99812.80
2017-11-30T22:40:55.372Z,99816.14
2017-11-30T22:43:22.931Z,99812.80
2017-11-30T22:45:56.381Z,99817.16
2017-11-30T22:48:23.841Z,99814.61
2017-11-30T22:50:51.001Z,99818.25
2017-11-30T22:53:19.252Z,99821.72
2017-11-30T23:05:35.186Z,99846.69
2017-11-30T23:08:07.515Z,99849.68
2017-11-30T23:10:38.019Z,99851.30
2017-11-30T23:13:06.085Z,99852.42
2017-11-30T23:15:33.238Z,99851.45
2017-11-30T23:18:06.460Z,99856.62
2017-11-30T23:20:35.207Z,99858.85
2017-11-30T23:23:07.787Z,99859.18
2017-11-30T23:25:37.056Z,99862.36
2017-11-30T23:28:05.058Z,99862.33
2017-11-30T23:30:34.137Z,99866.56
2017-11-30T23:33:07.443Z,99871.35
2017-11-30T23:35:43.131Z,99866.52
2017-11-30T23:38:10.925Z,99880.61
2017-11-30T23:40:38.972Z,99877.94
2017-11-30T23:43:06.443Z,99879.23
2017-11-30T23:45:33.959Z,99879.31
2017-11-30T23:48:01.946Z,99883.66
2017-11-30T23:50:29.124Z,99888.01
2017-11-30T23:53:02.323Z,99884.98
2017-11-30T23:55:29.667Z,99881.50
2017-11-30T23:58:02.011Z,99887.45
